Time,TemperatureF,DewpointF,PressureIn,WindDirection,WindDirectionDegrees,WindSpeedMPH,WindSpeedGustMPH,Humidity,HourlyPrecipIn,Conditions,Clouds,dailyrainin,SoftwareType,DateUTC
2013-04-17 00:00:00,-999.0,-99.9,30.31,North,-999,-999.0,-999.0,-999,-99.99,,,0.00,weatherlink.com 1.10,2013-04-17 04:00:00,
2013-04-17 00:15:00,-999.0,-99.9,30.31,North,-999,-999.0,-999.0,-999,-99.99,,,0.00,weatherlink.com 1.10,2013-04-17 04:15:00,
2013-04-17 00:30:00,-999.0,-99.9,30.32,North,-999,-999.0,-999.0,-999,-99.99,,,0.00,weatherlink.com 1.10,2013-04-17 04:30:00,
2013-04-17 00:46:00,-999.0,-99.9,30.31,North,-999,-999.0,-999.0,-999,-99.99,,,0.00,weatherlink.com 1.10,2013-04-17 04:46:00,
2013-04-17 01:01:00,-999.0,-99.9,30.32,North,-999,-999.0,-999.0,-999,-99.99,,,0.00,weatherlink.com 1.10,2013-04-17 05:01:00,
2013-04-17 01:16:00,-999.0,-99.9,30.32,North,-999,-999.0,-999.0,-999,-99.99,,,0.00,weatherlink.com 1.10,2013-04-17 05:16:00,
2013-04-17 01:31:00,-999.0,-99.9,30.32,North,-999,-999.0,-999.0,-999,-99.99,,,0.00,weatherlink.com 1.10,2013-04-17 05:31:00,
2013-04-17 01:46:00,-999.0,-99.9,30.33,North,-999,-999.0,-999.0,-999,-99.99,,,0.00,weatherlink.com 1.10,2013-04-17 05:46:00,
2013-04-17 02:01:00,-999.0,-99.9,30.34,North,-999,-999.0,-999.0,-999,-99.99,,,0.00,weatherlink.com 1.10,2013-04-17 06:01:00,
2013-04-17 02:16:00,-999.0,-99.9,30.34,North,-999,-999.0,-999.0,-999,-99.99,,,0.00,weatherlink.com 1.10,2013-04-17 06:16:00,
2013-04-17 02:31:00,-999.0,-99.9,30.34,North,-999,-999.0,-999.0,-999,-99.99,,,0.00,weatherlink.com 1.10,2013-04-17 06:31:00,
2013-04-17 02:46:00,-999.0,-99.9,30.35,North,-999,-999.0,-999.0,-999,-99.99,,,0.00,weatherlink.com 1.10,2013-04-17 06:46:00,
2013-04-17 03:01:00,-999.0,-99.9,30.35,North,-999,-999.0,-999.0,-999,-99.99,,,0.00,weatherlink.com 1.10,2013-04-17 07:01:00,
2013-04-17 03:16:00,-999.0,-99.9,30.35,North,-999,-999.0,-999.0,-999,-99.99,,,0.00,weatherlink.com 1.10,2013-04-17 07:16:00,
2013-04-17 03:31:00,-999.0,-99.9,30.36,North,-999,-999.0,-999.0,-999,-99.99,,,0.00,weatherlink.com 1.10,2013-04-17 07:31:00,
2013-04-17 03:46:00,-999.0,-99.9,30.36,North,-999,-999.0,-999.0,-999,-99.99,,,0.00,weatherlink.com 1.10,2013-04-17 07:46:00,
2013-04-17 04:02:00,-999.0,-99.9,30.36,North,-999,-999.0,-999.0,-999,-99.99,,,0.00,weatherlink.com 1.10,2013-04-17 08:02:00,
2013-04-17 04:17:00,-999.0,-99.9,30.37,North,-999,-999.0,-999.0,-999,-99.99,,,0.00,weatherlink.com 1.10,2013-04-17 08:17:00,
2013-04-17 04:32:00,-999.0,-99.9,30.37,North,-999,-999.0,-999.0,-999,-99.99,,,0.00,weatherlink.com 1.10,2013-04-17 08:32:00,
2013-04-17 04:47:00,-999.0,-99.9,30.37,North,-999,-999.0,-999.0,-999,-99.99,,,0.00,weatherlink.com 1.10,2013-04-17 08:47:00,
2013-04-17 05:02:00,-999.0,-99.9,30.37,North,-999,-999.0,-999.0,-999,-99.99,,,0.00,weatherlink.com 1.10,2013-04-17 09:02:00,
2013-04-17 05:17:00,-999.0,-99.9,30.38,North,-999,-999.0,-999.0,-999,-99.99,,,0.00,weatherlink.com 1.10,2013-04-17 09:17:00,
2013-04-17 05:32:00,-999.0,-99.9,30.38,North,-999,-999.0,-999.0,-999,-99.99,,,0.00,weatherlink.com 1.10,2013-04-17 09:32:00,
2013-04-17 05:47:00,-999.0,-99.9,30.38,North,-999,-999.0,-999.0,-999,-99.99,,,0.00,weatherlink.com 1.10,2013-04-17 09:47:00,
2013-04-17 06:02:00,-999.0,-99.9,30.39,North,-999,-999.0,-999.0,-999,-99.99,,,0.00,weatherlink.com 1.10,2013-04-17 10:02:00,
2013-04-17 06:17:00,-999.0,-99.9,30.39,North,-999,-999.0,-999.0,-999,-99.99,,,0.00,weatherlink.com 1.10,2013-04-17 10:17:00,
2013-04-17 06:32:00,-999.0,-99.9,30.39,North,-999,-999.0,-999.0,-999,-99.99,,,0.00,weatherlink.com 1.10,2013-04-17 10:32:00,
2013-04-17 06:47:00,-999.0,-99.9,30.39,North,-999,-999.0,-999.0,-999,-99.99,,,0.00,weatherlink.com 1.10,2013-04-17 10:47:00,
2013-04-17 07:02:00,-999.0,-99.9,30.39,North,-999,-999.0,-999.0,-999,-99.99,,,0.00,weatherlink.com 1.10,2013-04-17 11:02:00,
2013-04-17 07:17:00,-999.0,-99.9,30.39,North,-999,-999.0,-999.0,-999,-99.99,,,0.00,weatherlink.com 1.10,2013-04-17 11:17:00,
2013-04-17 07:33:00,-999.0,-99.9,30.40,North,-999,-999.0,-999.0,-999,-99.99,,,0.00,weatherlink.com 1.10,2013-04-17 11:33:00,
2013-04-17 07:48:00,-999.0,-99.9,30.40,North,-999,-999.0,-999.0,-999,-99.99,,,0.00,weatherlink.com 1.10,2013-04-17 11:48:00,
2013-04-17 08:03:00,-999.0,-99.9,30.40,North,-999,-999.0,-999.0,-999,-99.99,,,0.00,weatherlink.com 1.10,2013-04-17 12:03:00,
2013-04-17 08:18:00,33.9,31.0,30.40,ENE,69,10.0,-999.0,90,-99.99,,,0.00,weatherlink.com 1.10,2013-04-17 12:18:00,
2013-04-17 08:33:00,34.3,31.0,30.41,East,89,4.0,-999.0,88,-99.99,,,0.00,weatherlink.com 1.10,2013-04-17 12:33:00,
2013-04-17 08:48:00,34.6,31.0,30.41,East,91,4.0,-999.0,87,-99.99,,,0.00,weatherlink.com 1.10,2013-04-17 12:48:00,
2013-04-17 09:03:00,34.5,31.0,30.40,ESE,102,1.0,-999.0,86,-99.99,,,0.00,weatherlink.com 1.10,2013-04-17 13:03:00,
2013-04-17 09:49:00,35.8,32.0,30.42,ESE,121,5.0,-999.0,85,-99.99,,,0.00,weatherlink.com 1.10,2013-04-17 13:49:00,
2013-04-17 10:03:00,36.1,32.0,30.41,East,99,4.0,-999.0,84,-99.99,,,0.00,weatherlink.com 1.10,2013-04-17 14:03:00,
2013-04-17 10:18:00,36.0,32.0,30.41,ESE,119,4.0,-999.0,84,-99.99,,,0.00,weatherlink.com 1.10,2013-04-17 14:18:00,
2013-04-17 10:33:00,36.3,32.0,30.42,ESE,103,4.0,-999.0,83,-99.99,,,0.00,weatherlink.com 1.10,2013-04-17 14:33:00,
2013-04-17 10:48:00,36.7,32.0,30.43,East,98,7.0,-999.0,83,-99.99,,,0.00,weatherlink.com 1.10,2013-04-17 14:48:00,
2013-04-17 11:03:00,37.1,32.0,30.43,ESE,102,7.0,-999.0,83,-99.99,,,0.00,weatherlink.com 1.10,2013-04-17 15:03:00,
2013-04-17 11:18:00,36.9,32.0,30.43,SE,125,5.0,-999.0,83,-99.99,,,0.00,weatherlink.com 1.10,2013-04-17 15:18:00,
2013-04-17 11:33:00,36.4,32.0,30.43,ESE,113,14.0,-999.0,84,-99.99,,,0.00,weatherlink.com 1.10,2013-04-17 15:33:00,
2013-04-17 11:48:00,36.8,32.0,30.42,East,94,8.0,-999.0,84,-99.99,,,0.00,weatherlink.com 1.10,2013-04-17 15:48:00,
2013-04-17 12:03:00,37.2,33.0,30.42,ENE,63,7.0,-999.0,83,-99.99,,,0.00,weatherlink.com 1.10,2013-04-17 16:03:00,
2013-04-17 12:18:00,37.1,33.0,30.41,East,86,7.0,-999.0,84,-99.99,,,0.00,weatherlink.com 1.10,2013-04-17 16:18:00,
2013-04-17 12:33:00,37.4,33.0,30.38,NE,56,3.0,-999.0,83,-99.99,,,0.00,weatherlink.com 1.10,2013-04-17 16:33:00,
2013-04-17 12:48:00,36.7,32.0,30.37,East,86,11.0,-999.0,84,-99.99,,,0.00,weatherlink.com 1.10,2013-04-17 16:48:00,
2013-04-17 13:03:00,36.2,32.0,30.39,East,98,9.0,-999.0,86,-99.99,,,0.00,weatherlink.com 1.10,2013-04-17 17:03:00,
2013-04-17 13:18:00,36.5,32.0,30.38,East,98,13.0,-999.0,85,-99.99,,,0.00,weatherlink.com 1.10,2013-04-17 17:18:00,
2013-04-17 13:33:00,37.0,33.0,30.36,ESE,110,16.0,-999.0,84,-99.99,,,0.00,weatherlink.com 1.10,2013-04-17 17:33:00,
2013-04-17 13:48:00,37.3,33.0,30.36,East,101,7.0,-999.0,85,-99.99,,,0.00,weatherlink.com 1.10,2013-04-17 17:48:00,
2013-04-17 14:03:00,37.2,33.0,30.37,ESE,123,6.0,-999.0,85,-99.99,,,0.00,weatherlink.com 1.10,2013-04-17 18:03:00,
2013-04-17 14:18:00,37.1,33.0,30.36,ESE,103,12.0,-999.0,84,-99.99,,,0.00,weatherlink.com 1.10,2013-04-17 18:18:00,
2013-04-17 14:33:00,36.9,33.0,30.35,East,92,8.0,-999.0,85,-99.99,,,0.00,weatherlink.com 1.10,2013-04-17 18:33:00,
2013-04-17 14:48:00,36.8,33.0,30.34,SE,128,13.0,-999.0,86,-99.99,,,0.00,weatherlink.com 1.10,2013-04-17 18:48:00,
2013-04-17 15:03:00,37.1,33.0,30.34,ESE,122,4.0,-999.0,86,-99.99,,,0.00,weatherlink.com 1.10,2013-04-17 19:03:00,
2013-04-17 15:18:00,36.8,33.0,30.32,SE,128,13.0,-999.0,86,-99.99,,,0.00,weatherlink.com 1.10,2013-04-17 19:18:00,
2013-04-17 15:33:00,36.6,33.0,30.31,ESE,118,10.0,-999.0,87,-99.99,,,0.00,weatherlink.com 1.10,2013-04-17 19:33:00,
2013-04-17 15:48:00,36.9,33.0,30.30,SE,126,2.0,-999.0,85,-99.99,,,0.00,weatherlink.com 1.10,2013-04-17 19:48:00,
2013-04-17 16:03:00,36.8,33.0,30.30,East,90,6.0,-999.0,85,-99.99,,,0.00,weatherlink.com 1.10,2013-04-17 20:03:00,
2013-04-17 16:18:00,36.6,32.0,30.31,ESE,114,9.0,-999.0,84,-99.99,,,0.00,weatherlink.com 1.10,2013-04-17 20:18:00,
2013-04-17 16:33:00,36.7,33.0,30.32,ESE,121,12.0,-999.0,85,-99.99,,,0.00,weatherlink.com 1.10,2013-04-17 20:33:00,
2013-04-17 16:48:00,36.4,33.0,30.30,ESE,110,10.0,-999.0,86,-99.99,,,0.00,weatherlink.com 1.10,2013-04-17 20:48:00,
2013-04-17 17:18:00,36.3,33.0,30.31,SE,124,3.0,-999.0,86,-99.99,,,0.00,weatherlink.com 1.10,2013-04-17 21:18:00,
2013-04-17 17:33:00,36.5,32.0,30.30,East,99,3.0,-999.0,85,-99.99,,,0.00,weatherlink.com 1.10,2013-04-17 21:33:00,
2013-04-17 17:48:00,37.7,32.0,30.29,ESE,118,7.0,-999.0,79,-99.99,,,0.00,weatherlink.com 1.10,2013-04-17 21:48:00,
2013-04-17 18:03:00,37.6,32.0,30.29,ESE,114,5.0,-999.0,80,-99.99,,,0.00,weatherlink.com 1.10,2013-04-17 22:03:00,
2013-04-17 18:18:00,37.1,32.0,30.27,ESE,113,10.0,-999.0,81,-99.99,,,0.00,weatherlink.com 1.10,2013-04-17 22:18:00,
2013-04-17 18:33:00,36.7,32.0,30.26,SE,130,14.0,-999.0,83,-99.99,,,0.00,weatherlink.com 1.10,2013-04-17 22:33:00,
2013-04-17 18:48:00,36.4,32.0,30.24,SE,130,5.0,-999.0,85,-99.99,,,0.00,weatherlink.com 1.10,2013-04-17 22:48:00,
2013-04-17 19:03:00,36.2,32.0,30.24,ESE,121,11.0,-999.0,85,-99.99,,,0.00,weatherlink.com 1.10,2013-04-17 23:03:00,
2013-04-17 19:18:00,36.1,32.0,30.23,East,98,5.0,-999.0,86,-99.99,,,0.00,weatherlink.com 1.10,2013-04-17 23:18:00,
2013-04-17 19:33:00,36.0,33.0,30.22,ESE,104,4.0,-999.0,87,-99.99,,,0.00,weatherlink.com 1.10,2013-04-17 23:33:00,
2013-04-17 19:48:00,-999.0,-99.9,30.21,North,-999,-999.0,-999.0,-999,-99.99,,,0.00,weatherlink.com 1.10,2013-04-17 23:48:00,
2013-04-17 20:04:00,-999.0,-99.9,30.22,North,-999,-999.0,-999.0,-999,-99.99,,,0.00,weatherlink.com 1.10,2013-04-18 00:04:00,
2013-04-17 20:19:00,-999.0,-99.9,30.21,North,-999,-999.0,-999.0,-999,-99.99,,,0.00,weatherlink.com 1.10,2013-04-18 00:19:00,
2013-04-17 20:34:00,-999.0,-99.9,30.20,North,-999,-999.0,-999.0,-999,-99.99,,,0.00,weatherlink.com 1.10,2013-04-18 00:34:00,
2013-04-17 20:49:00,-999.0,-99.9,30.18,North,-999,-999.0,-999.0,-999,-99.99,,,0.00,weatherlink.com 1.10,2013-04-18 00:49:00,
2013-04-17 21:04:00,-999.0,-99.9,30.18,North,-999,-999.0,-999.0,-999,-99.99,,,0.00,weatherlink.com 1.10,2013-04-18 01:04:00,
2013-04-17 21:19:00,-999.0,-99.9,30.17,North,-999,-999.0,-999.0,-999,-99.99,,,0.00,weatherlink.com 1.10,2013-04-18 01:19:00,
2013-04-17 21:49:00,-999.0,-99.9,30.16,North,-999,-999.0,-999.0,-999,-99.99,,,0.00,weatherlink.com 1.10,2013-04-18 01:49:00,
2013-04-17 22:04:00,-999.0,-99.9,30.16,North,-999,-999.0,-999.0,-999,-99.99,,,0.00,weatherlink.com 1.10,2013-04-18 02:04:00,
2013-04-17 22:19:00,-999.0,-99.9,30.15,North,-999,-999.0,-999.0,-999,-99.99,,,0.00,weatherlink.com 1.10,2013-04-18 02:19:00,
2013-04-17 22:34:00,-999.0,-99.9,30.16,North,-999,-999.0,-999.0,-999,-99.99,,,0.00,weatherlink.com 1.10,2013-04-18 02:34:00,
2013-04-17 22:49:00,-999.0,-99.9,30.16,North,-999,-999.0,-999.0,-999,-99.99,,,0.00,weatherlink.com 1.10,2013-04-18 02:49:00,
2013-04-17 23:20:00,-999.0,-99.9,30.15,North,-999,-999.0,-999.0,-999,-99.99,,,0.00,weatherlink.com 1.10,2013-04-18 03:20:00,
2013-04-17 23:35:00,-999.0,-99.9,30.14,North,-999,-999.0,-999.0,-999,-99.99,,,0.00,weatherlink.com 1.10,2013-04-18 03:35:00,
2013-04-17 23:50:00,-999.0,-99.9,30.13,North,-999,-999.0,-999.0,-999,-99.99,,,0.00,weatherlink.com 1.10,2013-04-18 03:50:00,